North Cedar, Iowa
Current Conditions -  °F | °C
As of 3:54 AM on Tuesday 27 Jan 2015 (Local Time) from KALO Reporting Station
Overcast Overcast  
Wind Chill: 25°   Ceiling: 2900
Heat Index: 31°   Visibility: 10mi
Dew Point: 30°   Wind: 6mph
Humidity: 96%   Direction: 320°NW
Pressure: 30.03"   Gusts: NA
Location:  42.5035°N, 92.4936°W
Report Text: KALO 270954Z AUTO 32005KT 10SM OVC029 M01/M01 A3003 RMK AO2 SLP176 T10061011
Loading
Personal Weather Stations






























Interactive Weather Map New forecast layout! Learn more

10-Day Weather Forecast

Advertisements
Track Severe Weather on mobile